createdAt,value
2019-01-19T00:00:33.335Z,99.90
2019-01-19T00:03:19.988Z,99.90
2019-01-19T00:06:08.071Z,99.90
2019-01-19T00:08:39.321Z,99.90
2019-01-19T00:11:39.631Z,99.90
2019-01-19T00:14:17.834Z,99.90
2019-01-19T00:17:13.755Z,99.90
2019-01-19T00:19:54.153Z,99.90
2019-01-19T00:22:34.950Z,99.90
2019-01-19T00:25:30.249Z,99.90
2019-01-19T00:28:10.552Z,99.90
2019-01-19T00:30:42.114Z,99.90
2019-01-19T00:33:37.555Z,99.90
2019-01-19T00:36:29.691Z,99.90
2019-01-19T00:39:20.416Z,99.90
2019-01-19T00:42:03.328Z,99.90
2019-01-19T00:44:41.243Z,99.90
2019-01-19T00:47:30.571Z,99.90
2019-01-19T00:50:18.696Z,99.90
2019-01-19T00:52:50.234Z,99.90
2019-01-19T00:55:24.725Z,99.90
2019-01-19T00:58:08.487Z,99.90
2019-01-19T01:00:40.015Z,99.90
2019-01-19T01:03:20.391Z,99.90
2019-01-19T01:05:51.907Z,99.90
2019-01-19T01:08:44.435Z,99.90
2019-01-19T01:11:15.959Z,99.90
2019-01-19T01:14:02.664Z,99.90
2019-01-19T01:16:40.012Z,99.90
2019-01-19T01:19:28.064Z,99.90
2019-01-19T01:22:02.688Z,99.90
2019-01-19T01:24:49.645Z,99.90
2019-01-19T01:27:46.704Z,99.90
2019-01-19T01:30:18.235Z,99.90
2019-01-19T01:32:55.435Z,99.90
2019-01-19T01:35:38.927Z,99.90
2019-01-19T01:38:27.962Z,99.90
2019-01-19T01:41:18.897Z,99.90
2019-01-19T01:43:59.450Z,99.90
2019-01-19T01:46:47.938Z,99.90
2019-01-19T01:49:22.195Z,99.90
2019-01-19T01:51:56.264Z,99.90
2019-01-19T01:54:27.785Z,99.90
2019-01-19T01:56:58.986Z,99.90
2019-01-19T01:59:30.536Z,99.90
2019-01-19T02:02:11.495Z,99.90
2019-01-19T02:05:10.231Z,99.90
2019-01-19T02:08:07.263Z,99.90
2019-01-19T02:10:44.387Z,99.90
2019-01-19T02:13:21.621Z,99.90
2019-01-19T02:16:13.721Z,99.90
2019-01-19T02:18:56.751Z,99.90
2019-01-19T02:21:34.259Z,99.90
2019-01-19T02:24:10.524Z,99.90
2019-01-19T02:26:47.860Z,99.90
2019-01-19T02:29:21.968Z,99.90
2019-01-19T02:31:56.332Z,99.90
2019-01-19T02:34:45.672Z,99.90
2019-01-19T02:37:23.196Z,99.90
2019-01-19T02:40:00.488Z,99.90
2019-01-19T02:42:43.984Z,99.90
2019-01-19T02:45:21.310Z,99.90
2019-01-19T02:48:27.621Z,99.90
2019-01-19T02:51:01.629Z,99.90
2019-01-19T02:53:56.767Z,99.90
2019-01-19T02:56:46.563Z,99.90
2019-01-19T02:59:20.862Z,99.90
2019-01-19T03:01:58.248Z,99.90
2019-01-19T03:04:47.575Z,99.90
2019-01-19T03:07:37.330Z,99.90
2019-01-19T03:10:30.669Z,99.90
2019-01-19T03:13:07.851Z,99.90
2019-01-19T03:15:58.975Z,99.90
2019-01-19T03:18:48.451Z,99.90
2019-01-19T03:21:36.764Z,99.90
2019-01-19T03:24:08.301Z,99.90
2019-01-19T03:26:48.599Z,99.90
2019-01-19T03:29:38.633Z,99.90
2019-01-19T03:32:19.164Z,99.90
2019-01-19T03:35:12.031Z,99.90
2019-01-19T03:37:58.666Z,99.90
2019-01-19T03:40:51.281Z,99.90
2019-01-19T03:43:59.156Z,99.90
2019-01-19T03:46:50.378Z,99.90
2019-01-19T03:49:24.471Z,99.90
2019-01-19T03:51:56.049Z,99.90
2019-01-19T03:54:30.209Z,99.90
2019-01-19T03:57:07.374Z,99.90
2019-01-19T03:59:57.002Z,99.90
2019-01-19T04:02:50.974Z,99.90
2019-01-19T04:05:38.991Z,99.90
2019-01-19T04:08:25.728Z,99.90
2019-01-19T04:10:59.762Z,99.90
2019-01-19T04:13:34.095Z,99.90
2019-01-19T04:16:20.736Z,99.90
2019-01-19T04:18:58.238Z,99.90
2019-01-19T04:21:32.456Z,99.90
2019-01-19T04:24:03.981Z,99.90
2019-01-19T04:26:51.955Z,99.90
2019-01-19T04:29:20.403Z,99.90
2019-01-19T04:31:48.858Z,99.90
2019-01-19T04:34:17.574Z,99.90
2019-01-19T04:36:46.302Z,99.90
2019-01-19T04:39:21.565Z,99.90
2019-01-19T04:41:50.041Z,99.90
2019-01-19T04:44:18.555Z,99.90
2019-01-19T04:46:46.991Z,99.90
2019-01-19T04:49:15.462Z,99.90
2019-01-19T04:51:43.960Z,99.90
2019-01-19T04:54:12.509Z,99.90
2019-01-19T04:56:41.019Z,99.90
2019-01-19T04:59:09.473Z,99.90
2019-01-19T05:01:37.931Z,99.90
2019-01-19T05:04:06.448Z,99.90
2019-01-19T05:06:34.891Z,99.90
2019-01-19T05:09:04.896Z,99.90
2019-01-19T05:11:34.708Z,99.90
2019-01-19T05:14:03.166Z,99.90
2019-01-19T05:16:31.696Z,99.90
2019-01-19T05:19:00.134Z,99.90
2019-01-19T05:21:28.860Z,99.90
2019-01-19T05:23:57.438Z,99.90
2019-01-19T05:26:25.896Z,99.90
2019-01-19T05:28:54.339Z,99.90
2019-01-19T05:31:22.794Z,99.90
2019-01-19T05:33:51.230Z,99.90
2019-01-19T05:36:19.695Z,99.90
2019-01-19T05:38:48.145Z,99.90
2019-01-19T05:41:16.610Z,99.90
2019-01-19T05:43:45.050Z,99.90
2019-01-19T05:46:21.216Z,99.90
2019-01-19T05:48:43.687Z,99.90
2019-01-19T05:51:12.149Z,99.90
2019-01-19T05:53:40.602Z,99.90
2019-01-19T05:56:09.172Z,99.90
2019-01-19T05:58:37.636Z,99.90
2019-01-19T06:01:06.099Z,99.90
2019-01-19T06:03:34.553Z,99.90
2019-01-19T06:06:03.873Z,99.90
2019-01-19T06:08:32.327Z,99.90
2019-01-19T06:11:00.781Z,99.90
2019-01-19T06:13:29.267Z,99.90
2019-01-19T06:15:57.710Z,99.90
2019-01-19T06:18:26.155Z,99.90
2019-01-19T06:20:54.603Z,99.90
2019-01-19T06:23:23.059Z,99.90
2019-01-19T06:25:51.499Z,99.90
2019-01-19T06:28:19.953Z,99.90
2019-01-19T06:30:48.408Z,99.90
2019-01-19T06:33:16.912Z,99.90
2019-01-19T06:35:45.416Z,99.90
2019-01-19T06:38:13.883Z,99.90
2019-01-19T06:40:42.331Z,99.90
2019-01-19T06:43:10.806Z,99.90
2019-01-19T06:45:46.262Z,99.90
2019-01-19T06:48:34.048Z,99.90
2019-01-19T06:51:02.504Z,99.90
2019-01-19T06:53:31.024Z,99.90
2019-01-19T06:55:59.486Z,99.90
2019-01-19T06:58:27.972Z,99.90
2019-01-19T07:00:56.429Z,99.90
2019-01-19T07:03:24.881Z,99.90
2019-01-19T07:05:53.336Z,99.90
2019-01-19T07:08:21.859Z,99.90
2019-01-19T07:10:50.308Z,99.90
2019-01-19T07:13:18.832Z,99.90
2019-01-19T07:16:06.629Z,99.90
2019-01-19T07:18:36.351Z,99.90
2019-01-19T07:21:04.914Z,99.90
2019-01-19T07:23:33.416Z,99.90
2019-01-19T07:26:21.252Z,99.90
2019-01-19T07:28:50.812Z,99.90
2019-01-19T07:31:19.351Z,99.90
2019-01-19T07:33:47.808Z,99.90
2019-01-19T07:36:35.650Z,99.90
2019-01-19T07:39:06.630Z,99.90
2019-01-19T07:41:35.148Z,99.90
2019-01-19T07:44:03.722Z,99.90
2019-01-19T07:46:32.664Z,99.90
2019-01-19T07:49:01.179Z,99.90
2019-01-19T07:51:29.711Z,99.90
2019-01-19T07:53:58.311Z,99.90
2019-01-19T07:56:26.767Z,99.90
2019-01-19T07:58:55.252Z,99.90
2019-01-19T08:01:23.705Z,99.90
2019-01-19T08:03:52.286Z,99.90
2019-01-19T08:06:20.776Z,99.90
2019-01-19T08:08:49.341Z,99.90
2019-01-19T08:11:17.915Z,99.90
2019-01-19T08:13:46.467Z,99.90
2019-01-19T08:16:14.980Z,99.90
2019-01-19T08:18:43.442Z,99.90
2019-01-19T08:21:11.889Z,99.90
2019-01-19T08:23:40.357Z,99.90
2019-01-19T08:26:09.881Z,99.90
2019-01-19T08:28:38.403Z,99.90
2019-01-19T08:31:06.851Z,99.90
2019-01-19T08:33:35.356Z,99.90
2019-01-19T08:36:04.316Z,99.90
2019-01-19T08:38:32.901Z,99.90
2019-01-19T08:41:01.438Z,99.90
2019-01-19T08:43:31.582Z,99.90
2019-01-19T08:46:00.038Z,99.90
2019-01-19T08:48:28.547Z,99.90
2019-01-19T08:50:57.008Z,99.90
2019-01-19T08:53:25.452Z,99.90
2019-01-19T08:55:54.052Z,99.90
2019-01-19T08:58:22.502Z,99.90
2019-01-19T09:00:51.030Z,99.90
2019-01-19T09:03:19.512Z,99.90
2019-01-19T09:05:47.963Z,99.90
2019-01-19T09:08:16.429Z,99.90
2019-01-19T09:10:44.906Z,99.90
2019-01-19T09:13:13.388Z,99.90
2019-01-19T09:15:41.892Z,99.90
2019-01-19T09:18:10.407Z,99.90
2019-01-19T09:20:40.452Z,99.90
2019-01-19T09:23:16.753Z,99.90
2019-01-19T09:25:45.193Z,99.90
2019-01-19T09:28:17.624Z,99.90
2019-01-19T09:30:46.149Z,99.90
2019-01-19T09:33:14.724Z,99.90
2019-01-19T09:35:43.291Z,99.90
2019-01-19T09:38:11.746Z,99.90
2019-01-19T09:40:40.252Z,99.90
2019-01-19T09:43:08.762Z,99.90
2019-01-19T09:45:37.189Z,99.90
2019-01-19T09:48:16.259Z,99.90
2019-01-19T09:51:04.208Z,99.90
2019-01-19T09:53:32.695Z,99.90
2019-01-19T09:56:01.240Z,99.90
2019-01-19T09:58:29.779Z,99.90
2019-01-19T10:00:58.294Z,99.90
2019-01-19T10:03:26.830Z,99.90
2019-01-19T10:06:00.354Z,99.90
2019-01-19T10:08:28.809Z,99.90
2019-01-19T10:10:57.533Z,99.90
2019-01-19T10:13:25.955Z,99.90
2019-01-19T10:15:54.469Z,99.90
2019-01-19T10:18:23.364Z,99.90
2019-01-19T10:20:51.817Z,99.90
2019-01-19T10:23:20.260Z,99.90
2019-01-19T10:26:08.118Z,99.90
2019-01-19T10:28:36.683Z,99.90
2019-01-19T10:31:05.143Z,99.90
2019-01-19T10:33:33.609Z,99.90
2019-01-19T10:36:02.125Z,99.90
2019-01-19T10:38:30.569Z,99.90
2019-01-19T10:40:59.008Z,99.90
2019-01-19T10:43:27.451Z,99.90
2019-01-19T10:45:55.900Z,99.90
2019-01-19T10:48:24.431Z,99.90
2019-01-19T10:50:52.935Z,99.90
2019-01-19T10:53:21.479Z,99.90
2019-01-19T10:55:49.979Z,99.90
2019-01-19T10:58:18.487Z,99.90
2019-01-19T11:00:46.926Z,99.90
2019-01-19T11:03:16.355Z,99.90
2019-01-19T11:05:44.879Z,99.90
2019-01-19T11:08:13.970Z,99.90
2019-01-19T11:10:42.576Z,99.90
2019-01-19T11:13:11.033Z,99.90
2019-01-19T11:15:39.534Z,99.90
2019-01-19T11:18:07.983Z,99.90
2019-01-19T11:20:36.492Z,99.90
2019-01-19T11:23:05.385Z,99.90
2019-01-19T11:25:34.032Z,99.90
2019-01-19T11:28:02.629Z,99.90
2019-01-19T11:30:32.992Z,99.90
2019-01-19T11:33:01.440Z,99.90
2019-01-19T11:35:30.808Z,99.90
2019-01-19T11:37:59.323Z,99.90
2019-01-19T11:40:34.202Z,99.90
2019-01-19T11:43:03.099Z,99.90
2019-01-19T11:45:31.669Z,99.90
2019-01-19T11:48:00.141Z,99.90
2019-01-19T11:50:28.711Z,99.90
2019-01-19T11:52:57.212Z,99.90
2019-01-19T11:55:25.684Z,99.90
2019-01-19T11:57:57.035Z,99.90
2019-01-19T12:00:31.016Z,99.90
2019-01-19T12:02:59.532Z,99.90
2019-01-19T12:05:28.083Z,99.90
2019-01-19T12:07:56.591Z,99.90
2019-01-19T12:10:27.222Z,99.90
2019-01-19T12:12:57.364Z,99.90
2019-01-19T12:15:26.116Z,99.90
2019-01-19T12:17:54.743Z,99.90
2019-01-19T12:20:43.114Z,99.90
2019-01-19T12:23:11.539Z,99.90
2019-01-19T12:25:40.081Z,99.90
2019-01-19T12:28:08.632Z,99.90
2019-01-19T12:30:38.335Z,99.90
2019-01-19T12:33:06.931Z,99.90
2019-01-19T12:35:35.531Z,99.90
2019-01-19T12:38:04.404Z,99.90
2019-01-19T12:40:33.036Z,99.90
2019-01-19T12:43:12.028Z,99.90
2019-01-19T12:45:49.346Z,99.90
2019-01-19T12:48:17.822Z,99.90
2019-01-19T12:50:46.379Z,99.90
2019-01-19T12:53:15.926Z,99.90
2019-01-19T12:55:44.671Z,99.90
2019-01-19T12:58:13.223Z,99.90
2019-01-19T13:00:41.672Z,99.90
2019-01-19T13:03:10.275Z,99.90
2019-01-19T13:05:47.924Z,99.80
2019-01-19T13:08:19.811Z,99.00
2019-01-19T13:11:03.423Z,99.70
2019-01-19T13:13:32.519Z,99.20
2019-01-19T13:16:23.682Z,98.40
2019-01-19T13:18:55.189Z,98.40
2019-01-19T13:21:47.587Z,98.10
2019-01-19T13:24:47.942Z,98.50
2019-01-19T13:27:34.330Z,98.00
2019-01-19T13:30:23.799Z,97.70
2019-01-19T13:33:13.719Z,98.00
2019-01-19T13:36:17.256Z,97.30
2019-01-19T13:38:54.328Z,96.90
2019-01-19T13:41:46.711Z,96.40
2019-01-19T13:44:30.273Z,97.20
2019-01-19T13:47:18.502Z,96.60
2019-01-19T13:50:02.096Z,96.40
2019-01-19T13:52:55.700Z,96.00
2019-01-19T13:55:28.399Z,95.50
2019-01-19T13:57:59.908Z,94.20
2019-01-19T14:00:46.605Z,94.50
2019-01-19T14:03:33.046Z,94.20
2019-01-19T14:06:09.897Z,94.00
2019-01-19T14:09:15.207Z,93.60
2019-01-19T14:11:55.779Z,93.50
2019-01-19T14:14:39.404Z,93.70
2019-01-19T14:17:28.896Z,93.20
2019-01-19T14:20:00.412Z,92.80
2019-01-19T14:22:31.940Z,92.40
2019-01-19T14:25:21.262Z,92.70
2019-01-19T14:28:17.987Z,93.10
2019-01-19T14:30:52.423Z,92.80
2019-01-19T14:33:48.443Z,92.60
2019-01-19T14:36:20.343Z,93.40
2019-01-19T14:39:00.412Z,93.80
2019-01-19T14:41:37.851Z,94.60
2019-01-19T14:44:39.694Z,94.60
2019-01-19T14:47:11.232Z,95.20
2019-01-19T14:49:51.596Z,95.30
2019-01-19T14:52:56.968Z,95.80
2019-01-19T14:55:37.196Z,95.40
2019-01-19T14:58:11.537Z,95.50
2019-01-19T15:00:52.170Z,95.60
2019-01-19T15:03:35.437Z,95.80
2019-01-19T15:06:06.941Z,96.10
2019-01-19T15:09:04.420Z,95.50
2019-01-19T15:12:00.418Z,95.60
2019-01-19T15:14:37.545Z,96.20
2019-01-19T15:17:17.900Z,96.40
2019-01-19T15:19:58.368Z,95.70
2019-01-19T15:22:44.375Z,95.80
2019-01-19T15:25:27.722Z,96.00
2019-01-19T15:28:01.931Z,96.50
2019-01-19T15:30:45.609Z,96.80
2019-01-19T15:33:53.183Z,97.50
2019-01-19T15:36:39.445Z,98.70
2019-01-19T15:39:16.668Z,99.90
2019-01-19T15:41:48.200Z,99.90
2019-01-19T15:44:35.253Z,99.90
2019-01-19T15:47:21.716Z,99.90
2019-01-19T15:49:55.939Z,99.90
2019-01-19T15:52:33.236Z,99.90
2019-01-19T15:55:04.763Z,99.90
2019-01-19T15:57:45.138Z,99.90
2019-01-19T16:00:31.559Z,99.90
2019-01-19T16:03:11.791Z,99.90
2019-01-19T16:06:08.331Z,99.90
2019-01-19T16:08:46.037Z,99.90
2019-01-19T16:11:41.567Z,99.90
2019-01-19T16:14:16.115Z,99.90
2019-01-19T16:16:55.205Z,99.90
2019-01-19T16:19:41.719Z,99.90
2019-01-19T16:22:31.069Z,99.90
2019-01-19T16:25:24.004Z,99.90
2019-01-19T16:28:15.096Z,99.90
2019-01-19T16:31:09.193Z,99.90
2019-01-19T16:33:48.929Z,99.90
2019-01-19T16:36:49.552Z,99.90
2019-01-19T16:39:25.606Z,99.90
2019-01-19T16:42:06.052Z,99.90
2019-01-19T16:44:49.428Z,99.90
2019-01-19T16:47:33.115Z,99.90
2019-01-19T16:50:16.494Z,99.90
2019-01-19T16:52:48.074Z,99.90
2019-01-19T16:55:37.859Z,99.90
2019-01-19T16:58:12.477Z,99.90
2019-01-19T17:01:08.360Z,99.90
2019-01-19T17:03:43.066Z,99.90
2019-01-19T17:06:20.852Z,99.90
2019-01-19T17:09:12.211Z,99.90
2019-01-19T17:11:43.735Z,99.90
2019-01-19T17:14:21.002Z,99.90
2019-01-19T17:16:58.611Z,99.90
2019-01-19T17:19:42.158Z,99.90
2019-01-19T17:22:28.547Z,99.90
2019-01-19T17:25:03.083Z,99.90
2019-01-19T17:27:34.618Z,99.90
2019-01-19T17:30:22.936Z,99.90
2019-01-19T17:33:06.195Z,99.90
2019-01-19T17:36:01.759Z,99.90
2019-01-19T17:38:50.129Z,99.90
2019-01-19T17:41:53.144Z,99.90
2019-01-19T17:44:27.483Z,99.90
2019-01-19T17:46:59.009Z,99.90
2019-01-19T17:49:39.316Z,99.90
2019-01-19T17:52:19.595Z,99.90
2019-01-19T17:55:06.048Z,99.90
2019-01-19T17:57:43.650Z,99.90
2019-01-19T18:00:40.970Z,99.90
2019-01-19T18:03:21.574Z,99.90
2019-01-19T18:05:58.677Z,99.90
2019-01-19T18:08:33.383Z,99.90
2019-01-19T18:11:24.524Z,99.90
2019-01-19T18:14:05.084Z,99.90
2019-01-19T18:17:03.364Z,99.90
2019-01-19T18:19:34.891Z,99.90
2019-01-19T18:22:30.716Z,99.90
2019-01-19T18:25:04.798Z,99.90
2019-01-19T18:27:41.966Z,99.90
2019-01-19T18:30:19.357Z,99.90
2019-01-19T18:33:02.703Z,99.90
2019-01-19T18:36:04.729Z,99.90
2019-01-19T18:38:38.824Z,99.90
2019-01-19T18:41:19.099Z,99.90
2019-01-19T18:44:07.084Z,99.90
2019-01-19T18:47:13.652Z,99.90
2019-01-19T18:50:05.697Z,99.90
2019-01-19T18:53:05.706Z,99.90
2019-01-19T18:55:52.122Z,99.90
2019-01-19T18:58:38.799Z,99.90
2019-01-19T19:01:10.311Z,99.90
2019-01-19T19:04:02.864Z,99.90
2019-01-19T19:06:54.200Z,99.90
2019-01-19T19:09:49.463Z,99.90
2019-01-19T19:12:56.214Z,99.90
2019-01-19T19:16:00.935Z,99.90
2019-01-19T19:18:55.279Z,99.90
2019-01-19T19:21:38.543Z,99.90
2019-01-19T19:24:12.831Z,99.90
2019-01-19T19:26:58.951Z,99.90
2019-01-19T19:29:54.598Z,99.90
2019-01-19T19:32:43.914Z,99.90
2019-01-19T19:35:24.988Z,99.90
2019-01-19T19:38:15.884Z,99.90
2019-01-19T19:41:05.226Z,99.90
2019-01-19T19:43:56.302Z,99.90
2019-01-19T19:46:36.966Z,99.90
2019-01-19T19:49:27.851Z,99.90
2019-01-19T19:51:55.402Z,99.90
2019-01-19T19:54:51.512Z,99.90
2019-01-19T19:57:20.098Z,99.90
2019-01-19T19:59:48.544Z,99.90
2019-01-19T20:02:17.061Z,99.90
2019-01-19T20:04:45.582Z,99.90
2019-01-19T20:07:14.105Z,99.90
2019-01-19T20:09:42.700Z,99.90
2019-01-19T20:12:11.295Z,99.90
2019-01-19T20:14:39.810Z,99.90
2019-01-19T20:17:08.673Z,99.90
2019-01-19T20:19:37.250Z,99.90
2019-01-19T20:22:05.739Z,99.90
2019-01-19T20:24:34.278Z,99.90
2019-01-19T20:27:02.801Z,99.90
2019-01-19T20:29:31.233Z,99.90
2019-01-19T20:31:59.698Z,99.90
2019-01-19T20:34:28.153Z,99.90
2019-01-19T20:37:15.916Z,99.90
2019-01-19T20:39:56.665Z,99.90
2019-01-19T20:42:25.111Z,99.90
2019-01-19T20:44:53.565Z,99.90
2019-01-19T20:47:27.736Z,99.90
2019-01-19T20:49:56.178Z,99.90
2019-01-19T20:52:24.618Z,99.90
2019-01-19T20:54:54.111Z,99.90
2019-01-19T20:57:22.626Z,99.90
2019-01-19T20:59:51.493Z,99.90
2019-01-19T21:02:21.072Z,99.90
2019-01-19T21:04:49.556Z,99.90
2019-01-19T21:07:17.988Z,99.90
2019-01-19T21:09:46.584Z,99.90
2019-01-19T21:12:15.020Z,99.90
2019-01-19T21:14:43.501Z,99.90
2019-01-19T21:17:12.051Z,99.90
2019-01-19T21:19:40.611Z,99.90
2019-01-19T21:22:09.259Z,99.90
2019-01-19T21:24:38.875Z,99.90
2019-01-19T21:27:07.370Z,99.90
2019-01-19T21:29:35.831Z,99.90
2019-01-19T21:32:04.376Z,99.90
2019-01-19T21:34:32.831Z,99.90
2019-01-19T21:37:01.268Z,99.90
2019-01-19T21:39:29.718Z,99.90
2019-01-19T21:41:58.260Z,99.90
2019-01-19T21:44:27.206Z,99.90
2019-01-19T21:46:55.677Z,99.90
2019-01-19T21:49:24.296Z,99.90
2019-01-19T21:51:52.827Z,99.90
2019-01-19T21:54:21.394Z,99.90
2019-01-19T21:56:50.032Z,99.90
2019-01-19T21:59:18.487Z,99.90
2019-01-19T22:01:47.000Z,99.90
2019-01-19T22:04:15.443Z,99.90
2019-01-19T22:06:43.880Z,99.90
2019-01-19T22:09:12.386Z,99.90
2019-01-19T22:11:41.167Z,99.90
2019-01-19T22:14:09.698Z,99.90
2019-01-19T22:16:41.351Z,99.90
2019-01-19T22:19:22.035Z,99.90
2019-01-19T22:21:50.615Z,99.90
2019-01-19T22:24:19.191Z,99.90
2019-01-19T22:26:49.297Z,99.90
2019-01-19T22:29:17.967Z,99.90
2019-01-19T22:31:46.476Z,99.90
2019-01-19T22:34:14.940Z,99.90
2019-01-19T22:36:43.486Z,99.90
2019-01-19T22:39:31.267Z,99.90
2019-01-19T22:41:59.799Z,99.90
2019-01-19T22:44:28.259Z,99.90
2019-01-19T22:46:56.711Z,99.90
2019-01-19T22:49:25.144Z,99.90
2019-01-19T22:51:53.600Z,99.90
2019-01-19T22:54:22.109Z,99.90
2019-01-19T22:56:50.614Z,99.90
2019-01-19T22:59:19.089Z,99.90
2019-01-19T23:01:47.787Z,99.90
2019-01-19T23:04:16.220Z,99.90
2019-01-19T23:06:44.731Z,99.90
2019-01-19T23:09:13.234Z,99.90
2019-01-19T23:11:41.924Z,99.90
2019-01-19T23:14:11.001Z,99.90
2019-01-19T23:16:40.632Z,99.90
2019-01-19T23:19:09.135Z,99.90
2019-01-19T23:21:37.680Z,99.90
2019-01-19T23:24:06.251Z,99.90
2019-01-19T23:26:35.035Z,99.90
2019-01-19T23:29:03.628Z,99.90
2019-01-19T23:31:32.138Z,99.90
2019-01-19T23:34:00.598Z,99.90
2019-01-19T23:36:29.044Z,99.90
2019-01-19T23:38:58.572Z,99.90
2019-01-19T23:41:27.032Z,99.90
2019-01-19T23:43:56.084Z,99.90
2019-01-19T23:46:24.586Z,99.90
2019-01-19T23:48:53.026Z,99.90
2019-01-19T23:51:22.369Z,99.90
2019-01-19T23:53:51.015Z,99.90
2019-01-19T23:56:19.464Z,99.90
2019-01-19T23:58:47.915Z,99.90
